Terminal Aerodrome Forecast
Issued by NWS

Home | Current Version | Previous Version | Text Only | Print | Product List | Glossary On
Versions: 1 2 3 4 5 6 7 8 9 10 11 12 13 14 15 16 17
000
FTUS46 KLOX 050500 RRA
TAFVNY
TAF
KVNY 050551Z 0506/0606 13005KT P6SM SKC
     FM050800 14004KT P6SM BKN020
     FM051400 15005KT P6SM SCT012 OVC025
     FM052000 16009KT P6SM SCT030
     FM060400 15005KT P6SM SCT025=

USA.gov is the U.S. government's official web portal to all federal, state and local government web resources and services.